TAF Text Data
IDs:
Format:
Raw Decoded Include METAR

Data at: 2223 UTC 01 Dec 2021

KAIA 011720Z 0118/0218 28016G26KT P6SM BKN200
  FM012300 27010KT P6SM SCT200